createdAt,value
2023-02-15T00:01:38.579Z,32.10
2023-02-15T00:06:37.402Z,36.45
2023-02-15T00:09:08.071Z,33.25
2023-02-15T00:11:43.929Z,29.92
2023-02-15T00:14:15.688Z,38.10
2023-02-15T00:16:46.144Z,28.90
2023-02-15T00:19:16.831Z,32.95
2023-02-15T00:21:46.382Z,31.52
2023-02-15T00:24:19.160Z,35.58
2023-02-15T00:26:49.046Z,33.70
2023-02-15T00:29:20.340Z,33.60
2023-02-15T00:31:50.162Z,37.28
2023-02-15T00:34:21.805Z,34.33
2023-02-15T00:36:51.568Z,34.70
2023-02-15T00:39:22.449Z,32.47
2023-02-15T00:41:51.697Z,26.75
2023-02-15T00:44:21.026Z,31.45
2023-02-15T00:46:50.493Z,27.13
2023-02-15T00:49:19.773Z,29.58
2023-02-15T00:51:48.888Z,32.83
2023-02-15T00:54:17.938Z,35.72
2023-02-15T00:56:48.467Z,28.88
2023-02-15T00:59:17.561Z,28.67
2023-02-15T01:01:46.609Z,35.80
2023-02-15T01:04:15.889Z,29.25
2023-02-15T01:06:45.214Z,33.95
2023-02-15T01:09:14.880Z,47.47
2023-02-15T01:11:44.011Z,38.75
2023-02-15T01:14:15.679Z,36.88
2023-02-15T01:16:44.821Z,30.63
2023-02-15T01:19:14.529Z,37.40
2023-02-15T01:21:43.610Z,36.80
2023-02-15T01:24:15.330Z,31.58
2023-02-15T01:26:44.523Z,39.60
2023-02-15T01:29:15.011Z,34.28
2023-02-15T01:31:44.445Z,45.37
2023-02-15T01:34:13.740Z,40.90
2023-02-15T01:36:42.810Z,36.45
2023-02-15T01:39:12.087Z,33.92
2023-02-15T01:41:41.187Z,38.90
2023-02-15T01:44:50.870Z,40.67
2023-02-15T01:47:24.432Z,42.55
2023-02-15T01:50:02.347Z,35.08
2023-02-15T01:52:32.021Z,44.78
2023-02-15T01:55:03.599Z,45.72
2023-02-15T01:57:32.940Z,36.58
2023-02-15T02:00:06.997Z,41.70
2023-02-15T02:02:42.852Z,51.38
2023-02-15T02:05:12.008Z,47.00
2023-02-15T02:07:44.200Z,46.85
2023-02-15T02:10:15.698Z,42.78
2023-02-15T02:12:47.928Z,47.03
2023-02-15T02:15:19.156Z,44.83
2023-02-15T02:18:05.509Z,56.03
2023-02-15T02:20:55.271Z,52.58
2023-02-15T02:23:36.987Z,52.40
2023-02-15T02:27:03.543Z,56.00
2023-02-15T02:30:15.036Z,53.17
2023-02-15T02:33:12.879Z,51.30
2023-02-15T02:35:49.683Z,49.78
2023-02-15T02:38:25.830Z,51.58
2023-02-15T02:41:05.364Z,56.47
2023-02-15T02:43:42.669Z,56.33
2023-02-15T02:46:19.107Z,60.20
2023-02-15T02:48:51.709Z,50.97
2023-02-15T02:51:23.215Z,59.38
2023-02-15T02:53:54.827Z,53.85
2023-02-15T02:56:29.175Z,57.97
2023-02-15T02:59:04.309Z,57.30
2023-02-15T03:01:39.130Z,64.13
2023-02-15T03:04:14.152Z,60.08
2023-02-15T03:06:49.030Z,59.60
2023-02-15T03:09:23.525Z,58.50
2023-02-15T03:11:53.039Z,56.88
2023-02-15T03:16:53.999Z,59.65
2023-02-15T03:19:28.619Z,58.33
2023-02-15T03:22:10.489Z,61.47
2023-02-15T03:24:44.613Z,58.28
2023-02-15T03:27:18.813Z,61.33
2023-02-15T03:29:51.388Z,62.17
2023-02-15T03:32:21.765Z,57.13
2023-02-15T03:34:52.408Z,63.63
2023-02-15T03:37:28.854Z,61.25
2023-02-15T03:40:23.038Z,60.25
2023-02-15T03:43:00.725Z,68.45
2023-02-15T03:45:33.788Z,66.22
2023-02-15T03:48:04.853Z,61.60
2023-02-15T03:50:56.644Z,62.85
2023-02-15T03:53:27.457Z,57.80
2023-02-15T03:55:57.656Z,63.08
2023-02-15T03:58:43.913Z,60.22
2023-02-15T04:01:37.311Z,60.65
2023-02-15T04:04:14.330Z,55.50
2023-02-15T04:06:44.762Z,60.63
2023-02-15T04:09:31.777Z,53.73
2023-02-15T04:12:01.133Z,62.88
2023-02-15T04:14:47.579Z,55.60
2023-02-15T04:17:16.849Z,56.03
2023-02-15T04:20:03.775Z,50.05
2023-02-15T04:22:51.507Z,51.30
2023-02-15T04:25:21.095Z,44.30
2023-02-15T04:27:52.329Z,53.67
2023-02-15T04:30:23.796Z,51.05
2023-02-15T04:32:53.292Z,50.60
2023-02-15T04:35:23.447Z,49.47
2023-02-15T04:37:53.932Z,51.25
2023-02-15T04:40:23.012Z,49.83
2023-02-15T04:42:52.133Z,51.45
2023-02-15T04:45:21.333Z,46.08
2023-02-15T04:47:51.045Z,45.83
2023-02-15T04:50:20.505Z,39.63
2023-02-15T04:52:49.722Z,46.40
2023-02-15T04:55:20.436Z,40.75
2023-02-15T04:57:49.564Z,46.72
2023-02-15T05:00:19.179Z,39.42
2023-02-15T05:02:48.240Z,50.90
2023-02-15T05:05:17.470Z,41.85
2023-02-15T05:07:46.635Z,41.97
2023-02-15T05:10:15.931Z,37.72
2023-02-15T05:12:46.628Z,45.45
2023-02-15T05:15:15.722Z,41.30
2023-02-15T05:17:44.817Z,39.85
2023-02-15T05:20:14.252Z,47.45
2023-02-15T05:22:43.386Z,48.72
2023-02-15T05:25:30.064Z,48.00
2023-02-15T05:28:17.765Z,45.45
2023-02-15T05:30:47.180Z,44.00
2023-02-15T05:33:16.553Z,49.10
2023-02-15T05:35:45.997Z,45.83
2023-02-15T05:38:15.253Z,16.25
2023-02-15T05:40:44.352Z,6.45
2023-02-15T05:43:14.847Z,1.63
2023-02-15T05:45:47.585Z,1.03
2023-02-15T05:48:21.058Z,4.25
2023-02-15T05:51:00.348Z,1.23
2023-02-15T05:53:30.459Z,1.33
2023-02-15T05:56:01.614Z,1.75
2023-02-15T05:58:35.276Z,0.90
2023-02-15T06:01:10.962Z,0.68
2023-02-15T06:03:40.590Z,0.93
2023-02-15T06:06:10.432Z,1.05
2023-02-15T06:08:40.456Z,1.63
2023-02-15T06:11:10.262Z,0.70
2023-02-15T06:13:40.808Z,1.15
2023-02-15T06:16:10.129Z,0.70
2023-02-15T06:18:39.404Z,2.15
2023-02-15T06:21:10.374Z,1.40
2023-02-15T06:23:39.616Z,1.65
2023-02-15T06:26:09.027Z,1.00
2023-02-15T06:28:39.300Z,2.67
2023-02-15T06:31:10.218Z,1.05
2023-02-15T06:33:39.646Z,0.55
2023-02-15T06:36:09.200Z,1.85
2023-02-15T06:38:38.355Z,2.13
2023-02-15T06:41:07.560Z,0.65
2023-02-15T06:43:36.861Z,0.75
2023-02-15T06:46:06.037Z,0.55
2023-02-15T06:48:36.750Z,0.77
2023-02-15T06:51:06.241Z,1.45
2023-02-15T06:53:36.353Z,1.58
2023-02-15T06:56:07.741Z,0.30
2023-02-15T06:58:36.959Z,1.20
2023-02-15T07:01:06.792Z,1.92
2023-02-15T07:03:37.784Z,2.40
2023-02-15T07:06:09.482Z,1.25
2023-02-15T07:08:39.494Z,1.60
2023-02-15T07:11:27.156Z,0.55
2023-02-15T07:13:56.676Z,1.48
2023-02-15T07:16:25.964Z,2.00
2023-02-15T07:18:56.700Z,0.38
2023-02-15T07:21:26.312Z,0.95
2023-02-15T07:23:58.652Z,1.83
2023-02-15T07:26:28.287Z,0.30
2023-02-15T07:28:57.439Z,0.60
2023-02-15T07:31:26.713Z,1.95
2023-02-15T07:33:57.344Z,1.65
2023-02-15T07:36:26.690Z,0.82
2023-02-15T07:38:56.017Z,1.58
2023-02-15T07:41:25.381Z,2.15
2023-02-15T07:43:54.681Z,1.45
2023-02-15T07:46:24.021Z,2.35
2023-02-15T07:48:53.271Z,3.10
2023-02-15T07:51:24.064Z,0.68
2023-02-15T07:53:53.691Z,2.72
2023-02-15T07:56:22.804Z,2.00
2023-02-15T07:58:56.714Z,1.00
2023-02-15T08:01:28.095Z,1.08
2023-02-15T08:04:01.685Z,1.67
2023-02-15T08:06:35.116Z,2.25
2023-02-15T08:09:06.640Z,2.13
2023-02-15T08:14:09.841Z,0.88
2023-02-15T08:16:41.438Z,1.55
2023-02-15T08:19:12.452Z,0.82
2023-02-15T08:21:44.302Z,3.15
2023-02-15T08:24:17.702Z,1.20
2023-02-15T08:26:50.049Z,0.57
2023-02-15T08:29:22.429Z,2.33
2023-02-15T08:31:52.429Z,2.08
2023-02-15T08:34:22.882Z,2.42
2023-02-15T08:37:00.580Z,1.85
2023-02-15T08:39:32.025Z,5.00
2023-02-15T08:42:02.689Z,4.05
2023-02-15T08:47:05.004Z,5.57
2023-02-15T08:49:34.808Z,4.75
2023-02-15T08:52:05.948Z,3.38
2023-02-15T08:54:35.713Z,4.75
2023-02-15T08:57:05.448Z,5.55
2023-02-15T08:59:34.828Z,4.57
2023-02-15T09:02:04.509Z,3.83
2023-02-15T09:04:34.793Z,2.28
2023-02-15T09:07:06.419Z,1.70
2023-02-15T09:09:37.081Z,1.05
2023-02-15T09:12:07.837Z,4.43
2023-02-15T09:14:36.984Z,3.97
2023-02-15T09:17:06.060Z,5.32
2023-02-15T09:19:35.302Z,3.45
2023-02-15T09:22:06.645Z,2.03
2023-02-15T09:24:36.110Z,3.75
2023-02-15T09:27:05.634Z,2.05
2023-02-15T09:29:34.947Z,1.92
2023-02-15T09:32:04.537Z,3.22
2023-02-15T09:34:35.112Z,2.60
2023-02-15T09:37:07.941Z,1.65
2023-02-15T09:39:41.721Z,1.90
2023-02-15T09:42:29.809Z,2.55
2023-02-15T09:45:22.755Z,2.33
2023-02-15T09:48:22.616Z,1.40
2023-02-15T09:50:59.247Z,3.50
2023-02-15T09:53:46.475Z,2.58
2023-02-15T09:56:22.222Z,2.75
2023-02-15T09:58:59.823Z,2.97
2023-02-15T10:01:37.222Z,2.25
2023-02-15T10:04:32.255Z,1.88
2023-02-15T10:07:12.956Z,3.78
2023-02-15T10:09:53.871Z,2.88
2023-02-15T10:12:42.624Z,5.50
2023-02-15T10:15:35.543Z,3.17
2023-02-15T10:18:21.549Z,6.10
2023-02-15T10:20:58.762Z,3.10
2023-02-15T10:23:52.685Z,4.32
2023-02-15T10:26:24.910Z,2.72
2023-02-15T10:28:59.012Z,2.97
2023-02-15T10:31:30.580Z,7.50
2023-02-15T10:34:13.987Z,2.70
2023-02-15T10:37:13.919Z,4.95
2023-02-15T10:39:55.197Z,6.30
2023-02-15T10:42:44.877Z,4.32
2023-02-15T10:45:26.180Z,4.70
2023-02-15T10:48:24.766Z,4.55
2023-02-15T10:50:56.146Z,3.92
2023-02-15T10:56:17.107Z,3.72
2023-02-15T10:59:00.746Z,6.82
2023-02-15T11:01:36.885Z,7.40
2023-02-15T11:04:43.762Z,4.68
2023-02-15T11:07:20.555Z,3.20
2023-02-15T11:09:57.173Z,6.88
2023-02-15T11:12:31.692Z,6.20
2023-02-15T11:15:07.042Z,7.78
2023-02-15T11:17:43.168Z,6.65
2023-02-15T11:20:21.052Z,4.53
2023-02-15T11:22:52.506Z,5.70
2023-02-15T11:25:33.599Z,5.28
2023-02-15T11:28:06.118Z,6.57
2023-02-15T11:30:45.556Z,8.57
2023-02-15T11:33:23.356Z,5.40
2023-02-15T11:36:00.566Z,11.40
2023-02-15T11:38:34.008Z,9.32
2023-02-15T11:41:07.861Z,6.18
2023-02-15T11:43:41.521Z,6.38
2023-02-15T11:46:15.934Z,5.40
2023-02-15T11:48:45.326Z,7.95
2023-02-15T11:51:19.141Z,8.05
2023-02-15T11:53:50.409Z,8.07
2023-02-15T11:56:22.103Z,7.03
2023-02-15T11:58:56.996Z,7.38
2023-02-15T12:01:37.056Z,5.10
2023-02-15T12:04:12.665Z,10.85
2023-02-15T12:07:02.944Z,6.35
2023-02-15T12:09:37.458Z,8.68
2023-02-15T12:12:27.557Z,5.22
2023-02-15T12:14:58.568Z,8.00
2023-02-15T12:17:32.132Z,11.20
2023-02-15T12:20:03.551Z,10.30
2023-02-15T12:22:36.414Z,8.93
2023-02-15T12:25:23.362Z,10.40
2023-02-15T12:27:52.866Z,7.72
2023-02-15T12:30:25.289Z,8.10
2023-02-15T12:33:00.797Z,4.65
2023-02-15T12:35:32.703Z,8.40
2023-02-15T12:38:06.815Z,5.25
2023-02-15T12:40:36.782Z,10.82
2023-02-15T12:43:09.772Z,7.00
2023-02-15T12:45:47.544Z,36.25
2023-02-15T12:48:23.939Z,42.42
2023-02-15T12:50:56.465Z,6.63
2023-02-15T12:53:33.463Z,10.32
2023-02-15T12:56:04.273Z,18.08
2023-02-15T12:58:39.515Z,12.00
2023-02-15T13:01:18.095Z,12.85
2023-02-15T13:04:00.384Z,14.88
2023-02-15T13:06:36.354Z,11.93
2023-02-15T13:09:18.298Z,49.70
2023-02-15T13:11:49.051Z,10.65
2023-02-15T13:14:21.107Z,11.75
2023-02-15T13:16:54.182Z,17.15
2023-02-15T13:19:36.485Z,12.98
2023-02-15T13:22:13.057Z,11.68
2023-02-15T13:24:58.463Z,10.25
2023-02-15T13:27:43.511Z,7.43
2023-02-15T13:30:27.263Z,11.63
2023-02-15T13:33:01.908Z,6.95
2023-02-15T13:35:48.478Z,4.68
2023-02-15T13:38:31.636Z,5.47
2023-02-15T13:41:05.609Z,8.18
2023-02-15T13:43:49.349Z,9.93
2023-02-15T13:46:34.999Z,6.63
2023-02-15T13:49:17.692Z,7.13
2023-02-15T13:51:55.040Z,7.13
2023-02-15T13:54:42.139Z,4.35
2023-02-15T13:57:31.389Z,4.88
2023-02-15T14:00:12.962Z,6.68
2023-02-15T14:03:35.749Z,3.97
2023-02-15T14:06:33.551Z,5.97
2023-02-15T14:09:17.082Z,6.50
2023-02-15T14:11:56.841Z,6.97
2023-02-15T14:14:53.938Z,5.57
2023-02-15T14:17:29.373Z,7.35
2023-02-15T14:20:06.598Z,6.70
2023-02-15T14:22:41.867Z,5.00
2023-02-15T14:25:22.978Z,5.07
2023-02-15T14:28:01.506Z,6.78
2023-02-15T14:30:33.893Z,4.72
2023-02-15T14:33:09.038Z,8.82
2023-02-15T14:35:40.949Z,5.55
2023-02-15T14:38:21.490Z,8.50
2023-02-15T14:41:04.579Z,5.33
2023-02-15T14:43:47.026Z,3.83
2023-02-15T14:46:27.281Z,7.40
2023-02-15T14:49:00.307Z,4.18
2023-02-15T14:52:00.677Z,11.43
2023-02-15T14:55:00.874Z,5.53
2023-02-15T14:57:36.079Z,5.35
2023-02-15T15:00:36.867Z,6.72
2023-02-15T15:03:14.582Z,11.82
2023-02-15T15:05:52.049Z,7.97
2023-02-15T15:08:35.681Z,8.23
2023-02-15T15:11:43.691Z,10.82
2023-02-15T15:14:40.421Z,9.18
2023-02-15T15:17:14.422Z,5.75
2023-02-15T15:20:15.245Z,10.20
2023-02-15T15:22:45.374Z,11.43
2023-02-15T15:25:45.828Z,7.68
2023-02-15T15:28:48.741Z,25.23
2023-02-15T15:31:23.904Z,16.27
2023-02-15T15:34:48.205Z,29.48
2023-02-15T15:38:02.412Z,8.27
2023-02-15T15:41:10.178Z,7.50
2023-02-15T15:44:19.626Z,9.52
2023-02-15T15:47:03.398Z,8.77
2023-02-15T15:49:35.221Z,27.65
2023-02-15T15:52:11.236Z,16.08
2023-02-15T15:54:42.022Z,12.90
2023-02-15T15:57:21.829Z,10.80
2023-02-15T15:59:52.052Z,16.30
2023-02-15T16:02:24.699Z,20.30
2023-02-15T16:04:53.915Z,15.68
2023-02-15T16:07:28.022Z,14.13
2023-02-15T16:09:58.968Z,15.52
2023-02-15T16:12:29.372Z,22.95
2023-02-15T16:14:59.368Z,10.32
2023-02-15T16:17:33.242Z,13.63
2023-02-15T16:20:08.145Z,10.40
2023-02-15T16:22:37.634Z,18.95
2023-02-15T16:25:44.396Z,20.50
2023-02-15T16:28:14.666Z,17.67
2023-02-15T16:30:45.512Z,17.67
2023-02-15T16:33:18.184Z,11.98
2023-02-15T16:35:56.959Z,17.10
2023-02-15T16:38:55.235Z,19.35
2023-02-15T16:41:28.271Z,10.15
2023-02-15T16:44:00.160Z,24.20
2023-02-15T16:46:32.425Z,13.57
2023-02-15T16:49:05.964Z,9.45
2023-02-15T16:51:38.977Z,8.50
2023-02-15T16:54:10.004Z,17.67
2023-02-15T16:56:40.464Z,12.65
2023-02-15T16:59:26.121Z,14.10
2023-02-15T17:01:55.600Z,11.02
2023-02-15T17:04:35.717Z,14.75
2023-02-15T17:07:07.870Z,8.10
2023-02-15T17:09:37.172Z,6.97
2023-02-15T17:12:08.631Z,11.23
2023-02-15T17:14:41.888Z,8.75
2023-02-15T17:17:16.910Z,18.17
2023-02-15T17:19:52.961Z,12.02
2023-02-15T17:22:24.583Z,11.10
2023-02-15T17:25:01.618Z,11.98
2023-02-15T17:27:34.164Z,10.95
2023-02-15T17:30:05.446Z,8.75
2023-02-15T17:32:37.360Z,24.35
2023-02-15T17:35:21.406Z,16.33
2023-02-15T17:37:51.861Z,15.15
2023-02-15T17:40:24.832Z,12.27
2023-02-15T17:42:54.484Z,8.48
2023-02-15T17:45:28.754Z,38.35
2023-02-15T17:47:59.812Z,14.77
2023-02-15T17:50:31.564Z,20.17
2023-02-15T17:53:02.723Z,23.15
2023-02-15T17:55:39.104Z,15.88
2023-02-15T17:58:10.808Z,22.38
2023-02-15T18:01:01.480Z,27.70
2023-02-15T18:03:58.647Z,26.67
2023-02-15T18:06:46.961Z,16.88
2023-02-15T18:09:34.974Z,21.13
2023-02-15T18:12:04.913Z,22.77
2023-02-15T18:14:34.074Z,23.67
2023-02-15T18:17:03.139Z,17.10
2023-02-15T18:19:40.881Z,15.63
2023-02-15T18:22:13.331Z,13.98
2023-02-15T18:24:42.493Z,14.55
2023-02-15T18:27:12.840Z,16.17
2023-02-15T18:29:42.204Z,19.73
2023-02-15T18:32:18.259Z,20.15
2023-02-15T18:34:49.984Z,18.75
2023-02-15T18:37:23.298Z,13.23
2023-02-15T18:39:55.165Z,13.60
2023-02-15T18:42:27.146Z,16.10
2023-02-15T18:44:59.024Z,13.88
2023-02-15T18:47:28.971Z,12.25
2023-02-15T18:50:02.093Z,35.80
2023-02-15T18:52:36.085Z,16.33
2023-02-15T18:55:14.820Z,17.33
2023-02-15T18:57:45.824Z,18.05
2023-02-15T19:00:20.086Z,16.30
2023-02-15T19:02:49.364Z,15.48
2023-02-15T19:05:19.394Z,20.48
2023-02-15T19:07:51.767Z,16.13
2023-02-15T19:10:23.043Z,15.30
2023-02-15T19:12:56.019Z,20.73
2023-02-15T19:15:27.332Z,19.20
2023-02-15T19:20:27.835Z,17.23
2023-02-15T19:23:01.467Z,17.25
2023-02-15T19:25:32.827Z,18.05
2023-02-15T19:28:07.567Z,14.93
2023-02-15T19:30:38.820Z,18.83
2023-02-15T19:33:08.136Z,15.13
2023-02-15T19:35:37.391Z,18.50
2023-02-15T19:38:15.678Z,11.77
2023-02-15T19:40:45.221Z,16.88
2023-02-15T19:43:19.118Z,15.52
2023-02-15T19:45:48.892Z,12.82
2023-02-15T19:48:17.924Z,16.10
2023-02-15T19:50:47.870Z,13.10
2023-02-15T19:53:27.484Z,12.80
2023-02-15T19:55:56.882Z,17.88
2023-02-15T19:58:26.163Z,23.05
2023-02-15T20:00:56.816Z,13.90
2023-02-15T20:03:25.916Z,12.40
2023-02-15T20:05:54.980Z,11.50
2023-02-15T20:08:25.519Z,8.23
2023-02-15T20:10:54.797Z,8.52
2023-02-15T20:13:23.927Z,10.52
2023-02-15T20:15:53.464Z,8.98
2023-02-15T20:18:22.982Z,12.70
2023-02-15T20:20:54.107Z,8.55
2023-02-15T20:23:30.438Z,6.63
2023-02-15T20:26:02.095Z,8.25
2023-02-15T20:28:32.580Z,14.15
2023-02-15T20:31:02.036Z,12.50
2023-02-15T20:33:31.653Z,12.48
2023-02-15T20:36:01.518Z,9.93
2023-02-15T20:38:33.530Z,9.77
2023-02-15T20:41:21.007Z,6.47
2023-02-15T20:43:51.123Z,9.73
2023-02-15T20:46:21.957Z,6.25
2023-02-15T20:48:52.554Z,6.25
2023-02-15T20:51:24.640Z,10.77
2023-02-15T20:53:55.263Z,9.80
2023-02-15T20:56:26.309Z,7.20
2023-02-15T20:58:56.217Z,11.07
2023-02-15T21:01:25.667Z,9.70
2023-02-15T21:03:55.279Z,11.98
2023-02-15T21:06:24.404Z,6.65
2023-02-15T21:08:54.959Z,10.60
2023-02-15T21:11:24.450Z,11.93
2023-02-15T21:13:53.586Z,12.07
2023-02-15T21:16:22.685Z,6.45
2023-02-15T21:18:51.830Z,9.65
2023-02-15T21:21:24.693Z,9.85
2023-02-15T21:23:55.793Z,9.95
2023-02-15T21:26:24.942Z,9.02
2023-02-15T21:28:55.167Z,13.02
2023-02-15T21:31:25.711Z,7.28
2023-02-15T21:33:55.106Z,16.90
2023-02-15T21:36:27.030Z,10.43
2023-02-15T21:38:57.707Z,14.50
2023-02-15T21:41:46.684Z,10.80
2023-02-15T21:44:35.543Z,8.68
2023-02-15T21:47:22.466Z,7.50
2023-02-15T21:49:51.623Z,9.18
2023-02-15T21:52:23.580Z,8.38
2023-02-15T21:54:54.040Z,5.90
2023-02-15T21:57:23.114Z,9.75
2023-02-15T21:59:52.243Z,13.38
2023-02-15T22:02:29.652Z,6.32
2023-02-15T22:05:00.429Z,15.32
2023-02-15T22:07:29.528Z,13.45
2023-02-15T22:10:00.045Z,11.43
2023-02-15T22:12:29.254Z,7.03
2023-02-15T22:14:58.394Z,9.52
2023-02-15T22:17:29.220Z,6.60
2023-02-15T22:19:59.234Z,9.68
2023-02-15T22:22:30.179Z,7.05
2023-02-15T22:25:00.682Z,6.00
2023-02-15T22:27:31.821Z,4.60
2023-02-15T22:30:01.114Z,2.60
2023-02-15T22:32:30.319Z,3.75
2023-02-15T22:34:59.402Z,6.53
2023-02-15T22:37:29.226Z,2.55
2023-02-15T22:39:58.376Z,3.80
2023-02-15T22:42:29.709Z,4.82
2023-02-15T22:47:29.718Z,5.63
2023-02-15T22:49:58.782Z,2.78
2023-02-15T22:52:27.879Z,2.60
2023-02-15T22:54:56.956Z,2.78
2023-02-15T22:57:33.067Z,1.75
2023-02-15T23:00:02.529Z,1.42
2023-02-15T23:02:31.927Z,2.97
2023-02-15T23:05:01.001Z,2.85
2023-02-15T23:07:30.183Z,3.35
2023-02-15T23:09:59.271Z,1.05
2023-02-15T23:12:53.788Z,2.25
2023-02-15T23:15:22.988Z,3.67
2023-02-15T23:17:52.035Z,1.83
2023-02-15T23:20:21.149Z,1.20
2023-02-15T23:22:50.175Z,2.78
2023-02-15T23:25:24.432Z,2.80
2023-02-15T23:28:00.609Z,1.88
2023-02-15T23:30:29.677Z,3.00
2023-02-15T23:33:02.174Z,0.85
2023-02-15T23:35:31.455Z,1.52
2023-02-15T23:38:00.546Z,0.70
2023-02-15T23:40:47.008Z,1.73
2023-02-15T23:43:23.482Z,1.15
2023-02-15T23:45:52.609Z,1.80
2023-02-15T23:48:31.275Z,1.00
2023-02-15T23:51:01.354Z,1.58
2023-02-15T23:53:30.974Z,1.25
2023-02-15T23:56:00.794Z,2.47
2023-02-15T23:58:36.381Z,0.50
